OHDAC EFOU-EFOU

Flight info

Callsign OHDAC
Flight time 0h 27m
Altitude 9000
Route TC
Aircraft DA42/L-SBDGRY/S

Departure

Time 2026-04-27 16:30
Airport Oulu Airport (EFOU)

Arrival

Time 2026-04-27 16:57
Airport Oulu Airport (EFOU)
Time Latitude Longitude Altitude Speed Heading
2026-04-27 16:18 64.93149 25.36667 44 ft 0 kts 337°
2026-04-27 16:22 64.93150 25.36663 45 ft 2 kts 319°
2026-04-27 16:22 64.93138 25.36545 45 ft 12 kts 257°
2026-04-27 16:23 64.93082 25.36313 46 ft 19 kts 238°
2026-04-27 16:23 64.92905 25.36515 45 ft 15 kts 189°
2026-04-27 16:23 64.92855 25.36453 45 ft 6 kts 212°
2026-04-27 16:24 64.92854 25.36451 45 ft 0 kts 212°
2026-04-27 16:25 64.92852 25.36449 45 ft 3 kts 212°
2026-04-27 16:26 64.92812 25.36223 46 ft 0 kts 300°
2026-04-27 16:28 64.92812 25.36220 46 ft 0 kts 302°
2026-04-27 16:29 64.93150 25.34820 220 ft 72 kts 304°
2026-04-27 16:30 64.93457 25.32504 727 ft 79 kts 292°
2026-04-27 16:30 64.93539 25.29923 1159 ft 100 kts 248°
2026-04-27 16:31 64.90945 25.26981 1039 ft 153 kts 195°
2026-04-27 16:31 64.89365 25.29259 869 ft 138 kts 106°
2026-04-27 16:32 64.88674 25.33290 814 ft 130 kts 100°
2026-04-27 16:32 64.88363 25.35223 876 ft 120 kts 97°
2026-04-27 16:33 64.87896 25.38704 1119 ft 100 kts 67°
2026-04-27 16:33 64.88268 25.39887 1200 ft 96 kts 25°
2026-04-27 16:33 64.88889 25.40568 1097 ft 99 kts 16°
2026-04-27 16:33 64.89487 25.41143 1079 ft 85 kts 14°
2026-04-27 16:34 64.90042 25.41553 995 ft 84 kts 10°
2026-04-27 16:34 64.90608 25.41732 980 ft 77 kts 354°
2026-04-27 16:34 64.91129 25.41370 750 ft 77 kts 339°
2026-04-27 16:34 64.91579 25.40679 533 ft 78 kts 324°
2026-04-27 16:35 64.91911 25.39734 319 ft 75 kts 311°
2026-04-27 16:35 64.92157 25.38703 194 ft 71 kts 307°
2026-04-27 16:35 64.92684 25.36712 45 ft 69 kts 306°
2026-04-27 16:36 64.92922 25.35761 178 ft 64 kts 307°
2026-04-27 16:36 64.93125 25.34881 389 ft 63 kts 307°
2026-04-27 16:36 64.93340 25.33744 525 ft 86 kts 302°
2026-04-27 16:36 64.93600 25.32345 708 ft 96 kts 303°
2026-04-27 16:37 64.93865 25.30807 869 ft 107 kts 289°
2026-04-27 16:37 64.93452 25.29135 981 ft 140 kts 219°
2026-04-27 16:37 64.92443 25.28565 905 ft 160 kts 183°
2026-04-27 16:37 64.91390 25.28163 1057 ft 153 kts 168°
2026-04-27 16:38 64.90418 25.29192 1017 ft 157 kts 133°
2026-04-27 16:38 64.89541 25.30722 1028 ft 159 kts 140°
2026-04-27 16:38 64.88880 25.32596 1091 ft 146 kts 106°
2026-04-27 16:38 64.88467 25.34844 1013 ft 151 kts 101°
2026-04-27 16:39 64.88169 25.37186 1022 ft 145 kts 94°
2026-04-27 16:39 64.87968 25.39450 1119 ft 137 kts 86°
2026-04-27 16:39 64.88162 25.41457 1187 ft 119 kts 40°
2026-04-27 16:39 64.88889 25.42305 1091 ft 120 kts
2026-04-27 16:40 64.89730 25.42442 975 ft 124 kts
2026-04-27 16:40 64.90572 25.42377 850 ft 110 kts 347°
2026-04-27 16:40 64.91153 25.41666 728 ft 87 kts 330°
2026-04-27 16:40 64.91592 25.40708 552 ft 87 kts 318°
2026-04-27 16:41 64.91960 25.39529 373 ft 89 kts 309°
2026-04-27 16:41 64.92261 25.38342 170 ft 77 kts 307°
2026-04-27 16:41 64.92540 25.37267 56 ft 74 kts 307°
2026-04-27 16:41 64.92816 25.36195 107 ft 81 kts 306°
2026-04-27 16:42 64.93095 25.35031 291 ft 82 kts 305°
2026-04-27 16:42 64.93358 25.33852 505 ft 80 kts 308°
2026-04-27 16:42 64.93666 25.32683 619 ft 90 kts 312°
2026-04-27 16:42 64.93971 25.31362 839 ft 101 kts 298°
2026-04-27 16:43 64.93748 25.29655 1039 ft 128 kts 229°
2026-04-27 16:43 64.92893 25.28655 1130 ft 145 kts 208°
2026-04-27 16:43 64.91949 25.27722 1169 ft 156 kts 205°
2026-04-27 16:43 64.90906 25.26738 1082 ft 166 kts 205°
2026-04-27 16:44 64.89803 25.26402 1136 ft 156 kts 168°
2026-04-27 16:44 64.89016 25.27723 1236 ft 133 kts 111°
2026-04-27 16:44 64.88586 25.29654 1189 ft 135 kts 102°
2026-04-27 16:44 64.88234 25.31678 1206 ft 132 kts 99°
2026-04-27 16:45 64.87960 25.33754 1112 ft 135 kts 93°
2026-04-27 16:45 64.87775 25.35851 1097 ft 133 kts 90°
2026-04-27 16:45 64.87738 25.37888 1229 ft 111 kts 69°
2026-04-27 16:45 64.88059 25.39463 1214 ft 106 kts 40°
2026-04-27 16:46 64.88638 25.40322 1310 ft 95 kts 11°
2026-04-27 16:46 64.89348 25.40561 1116 ft 111 kts
2026-04-27 16:46 64.90098 25.40759 901 ft 103 kts
2026-04-27 16:46 64.90747 25.40850 768 ft 82 kts 355°
2026-04-27 16:47 64.91267 25.40478 523 ft 80 kts 336°
2026-04-27 16:47 64.91759 25.39761 364 ft 85 kts 326°
2026-04-27 16:47 64.92152 25.38767 201 ft 80 kts 311°
2026-04-27 16:47 64.92439 25.37617 76 ft 79 kts 309°
2026-04-27 16:48 64.92712 25.36601 51 ft 75 kts 303°
2026-04-27 16:48 64.93005 25.35426 205 ft 90 kts 307°
2026-04-27 16:48 64.93313 25.34068 487 ft 98 kts 304°
2026-04-27 16:49 64.93928 25.30930 841 ft 114 kts 300°
2026-04-27 16:49 64.93855 25.28999 985 ft 131 kts 249°
2026-04-27 16:49 64.93240 25.27279 951 ft 143 kts 232°
2026-04-27 16:49 64.92398 25.25972 887 ft 152 kts 191°
2026-04-27 16:50 64.91420 25.26554 825 ft 146 kts 130°
2026-04-27 16:50 64.90839 25.28394 885 ft 135 kts 114°
2026-04-27 16:50 64.90363 25.30164 1212 ft 124 kts 110°
2026-04-27 16:50 64.89899 25.31876 1503 ft 123 kts 108°
2026-04-27 16:51 64.89465 25.33565 1833 ft 120 kts 104°
2026-04-27 16:51 64.89082 25.35309 2018 ft 127 kts 100°
2026-04-27 16:51 64.88725 25.37291 2165 ft 129 kts 96°
2026-04-27 16:51 64.88573 25.38765 2108 ft 74 kts 64°
2026-04-27 16:52 64.88802 25.39647 1684 ft 59 kts 25°
2026-04-27 16:52 64.89169 25.40119 944 ft 102 kts 17°
2026-04-27 16:52 64.89848 25.40497 493 ft 103 kts
2026-04-27 16:52 64.90618 25.40499 447 ft 112 kts 355°
2026-04-27 16:53 64.91317 25.40257 450 ft 88 kts 343°
2026-04-27 16:53 64.91791 25.39611 364 ft 83 kts 328°
2026-04-27 16:53 64.92218 25.38502 199 ft 98 kts 307°
2026-04-27 16:53 64.92570 25.37136 71 ft 98 kts 306°
2026-04-27 16:54 64.92916 25.35802 95 ft 87 kts 320°
2026-04-27 16:54 64.93223 25.34549 93 ft 85 kts 307°
2026-04-27 16:54 64.93461 25.33511 429 ft 71 kts 306°
2026-04-27 16:54 64.93685 25.32154 534 ft 104 kts 285°
2026-04-27 16:55 64.93264 25.30591 784 ft 128 kts 212°
2026-04-27 16:55 64.92418 25.29647 871 ft 147 kts 210°
2026-04-27 16:55 64.91367 25.29032 756 ft 161 kts 179°
2026-04-27 16:55 64.90473 25.30220 681 ft 146 kts 110°
2026-04-27 16:56 64.90291 25.32433 651 ft 133 kts 88°
2026-04-27 16:56 64.90236 25.34486 773 ft 121 kts 79°
2026-04-27 16:56 64.90313 25.36311 907 ft 108 kts 58°
2026-04-27 16:56 64.90871 25.37453 722 ft 99 kts 26°
2026-04-27 16:57 64.91424 25.38130 465 ft 93 kts 18°
2026-04-27 16:57 64.92041 25.38566 260 ft 86 kts 351°
2026-04-27 16:57 64.92433 25.37643 49 ft 76 kts 306°
2026-04-27 16:57 64.92657 25.36830 44 ft 40 kts 300°
2026-04-27 16:58 64.92786 25.36403 46 ft 25 kts 350°
2026-04-27 16:58 64.92924 25.36509 45 ft 18 kts 332°
2026-04-27 16:58 64.93000 25.36236 46 ft 29 kts 298°
2026-04-27 16:58 64.93093 25.36360 45 ft 34 kts 81°
2026-04-27 16:59 64.93127 25.36644 45 ft 6 kts 187°
2026-04-27 16:59 64.93136 25.36604 45 ft 0 kts 328°